createdAt,value
2022-08-07T00:00:25.057Z,99518.13
2022-08-07T00:02:53.783Z,99516.16
2022-08-07T00:05:23.585Z,99517.88
2022-08-07T00:08:00.141Z,99515.25
2022-08-07T00:10:31.375Z,99520.53
2022-08-07T00:13:09.611Z,99518.84
2022-08-07T00:15:46.802Z,99513.84
2022-08-07T00:18:24.565Z,99514.16
2022-08-07T00:21:01.531Z,99519.28
2022-08-07T00:23:30.747Z,99508.88
2022-08-07T00:26:02.865Z,99510.59
2022-08-07T00:28:45.711Z,99509.81
2022-08-07T00:31:16.660Z,99507.41
2022-08-07T00:33:47.411Z,99505.97
2022-08-07T00:36:14.935Z,99508.69
2022-08-07T00:38:43.837Z,99506.13
2022-08-07T00:41:14.818Z,99508.00
2022-08-07T00:44:01.340Z,99508.91
2022-08-07T00:46:32.946Z,99504.59
2022-08-07T00:49:03.003Z,99507.13
2022-08-07T00:51:58.546Z,99503.47
2022-08-07T00:54:19.628Z,99497.28
2022-08-07T00:56:49.709Z,99491.13
2022-08-07T00:59:35.224Z,99498.97
2022-08-07T01:02:03.508Z,99500.69
2022-08-07T01:04:35.509Z,99505.63
2022-08-07T01:07:09.972Z,99502.81
2022-08-07T01:10:06.253Z,99500.03
2022-08-07T01:12:30.139Z,99505.47
2022-08-07T01:15:01.648Z,99509.97
2022-08-07T01:17:32.061Z,99505.81
2022-08-07T01:20:10.178Z,99509.22
2022-08-07T01:22:53.966Z,99507.75
2022-08-07T01:25:54.026Z,99508.00
2022-08-07T01:28:15.604Z,99500.22
2022-08-07T01:30:43.918Z,99506.53
2022-08-07T01:33:12.194Z,99503.97
2022-08-07T01:35:53.807Z,99497.94
2022-08-07T01:38:24.700Z,99508.47
2022-08-07T01:40:58.714Z,99499.78
2022-08-07T01:43:34.578Z,99505.22
2022-08-07T01:46:05.743Z,99500.88
2022-08-07T01:48:35.773Z,99504.38
2022-08-07T01:51:24.559Z,99508.78
2022-08-07T01:54:12.659Z,99503.44
2022-08-07T01:56:55.294Z,99507.88
2022-08-07T01:59:31.187Z,99501.97
2022-08-07T02:02:10.379Z,99501.97
2022-08-07T02:04:56.322Z,99509.97
2022-08-07T02:07:45.075Z,99501.44
2022-08-07T02:10:17.886Z,99498.09
2022-08-07T02:12:50.029Z,99499.19
2022-08-07T02:15:22.969Z,99490.53
2022-08-07T02:17:51.995Z,99496.19
2022-08-07T02:20:23.693Z,99489.28
2022-08-07T02:22:57.601Z,99490.13
2022-08-07T02:25:32.211Z,99492.06
2022-08-07T02:28:24.282Z,99487.59
2022-08-07T02:30:53.102Z,99484.00
2022-08-07T02:33:20.797Z,99484.78
2022-08-07T02:36:28.753Z,99491.69
2022-08-07T02:38:39.658Z,99489.81
2022-08-07T02:41:21.581Z,99490.81
2022-08-07T02:43:49.457Z,99486.56
2022-08-07T02:46:18.568Z,99490.06
2022-08-07T02:48:54.733Z,99491.00
2022-08-07T02:51:42.095Z,99494.56
2022-08-07T02:54:13.925Z,99493.03
2022-08-07T02:56:42.321Z,99493.16
2022-08-07T02:59:11.811Z,99491.47
2022-08-07T03:01:40.814Z,99490.59
2022-08-07T03:04:12.492Z,99502.13
2022-08-07T03:06:44.846Z,99496.75
2022-08-07T03:09:13.886Z,99489.03
2022-08-07T03:11:52.407Z,99485.34
2022-08-07T03:14:27.784Z,99492.25
2022-08-07T03:16:56.516Z,99493.16
2022-08-07T03:19:28.980Z,99493.09
2022-08-07T03:22:06.093Z,99494.69
2022-08-07T03:24:34.348Z,99492.88
2022-08-07T03:27:09.087Z,99497.97
2022-08-07T03:29:44.652Z,99494.41
2022-08-07T03:32:19.311Z,99495.25
2022-08-07T03:35:16.801Z,99495.03
2022-08-07T03:37:46.392Z,99488.81
2022-08-07T03:40:22.861Z,99492.22
2022-08-07T03:42:51.817Z,99493.78
2022-08-07T03:45:29.971Z,99490.97
2022-08-07T03:47:58.985Z,99486.28
2022-08-07T03:50:28.996Z,99492.44
2022-08-07T03:52:59.325Z,99490.41
2022-08-07T03:55:57.632Z,99487.69
2022-08-07T03:59:06.670Z,99491.00
2022-08-07T04:01:07.360Z,99493.41
2022-08-07T04:03:49.824Z,99487.13
2022-08-07T04:06:37.158Z,99491.25
2022-08-07T04:09:05.743Z,99485.00
2022-08-07T04:12:27.091Z,99484.84
2022-08-07T04:14:38.762Z,99486.38
2022-08-07T04:17:20.175Z,99486.06
2022-08-07T04:19:54.518Z,99492.88
2022-08-07T04:22:27.418Z,99494.41
2022-08-07T04:24:58.645Z,99495.09
2022-08-07T04:27:27.902Z,99500.25
2022-08-07T04:30:01.127Z,99497.34
2022-08-07T04:32:34.364Z,99497.94
2022-08-07T04:35:07.227Z,99495.75
2022-08-07T04:38:01.221Z,99496.50
2022-08-07T04:40:29.566Z,99497.88
2022-08-07T04:43:01.712Z,99494.88
2022-08-07T04:45:57.173Z,99498.72
2022-08-07T04:48:44.971Z,99494.63
2022-08-07T04:51:53.960Z,99490.59
2022-08-07T04:54:50.697Z,99496.03
2022-08-07T04:58:23.767Z,99497.41
2022-08-07T05:00:30.082Z,99502.06
2022-08-07T05:04:01.144Z,99511.06
2022-08-07T05:06:28.290Z,99505.59
2022-08-07T05:09:45.645Z,99510.34
2022-08-07T05:12:26.963Z,99512.53
2022-08-07T05:15:16.091Z,99505.84
2022-08-07T05:17:56.659Z,99509.44
2022-08-07T05:20:33.806Z,99508.00
2022-08-07T05:23:15.472Z,99501.94
2022-08-07T05:26:13.091Z,99501.38
2022-08-07T05:28:34.967Z,99496.25
2022-08-07T05:31:03.653Z,99500.88
2022-08-07T05:33:35.649Z,99499.44
2022-08-07T05:36:07.166Z,99503.31
2022-08-07T05:39:00.201Z,99496.59
2022-08-07T05:42:02.710Z,99503.00
2022-08-07T05:44:29.203Z,99500.53
2022-08-07T05:46:57.935Z,99493.97
2022-08-07T05:49:27.326Z,99494.00
2022-08-07T05:52:11.678Z,99502.44
2022-08-07T05:54:44.346Z,99502.16
2022-08-07T05:57:21.172Z,99511.13
2022-08-07T05:59:55.809Z,99492.91
2022-08-07T06:02:29.157Z,99501.41
2022-08-07T06:05:03.615Z,99505.97
2022-08-07T06:08:13.834Z,99502.66
2022-08-07T06:10:20.887Z,99496.72
2022-08-07T06:12:49.703Z,99490.38
2022-08-07T06:15:19.960Z,99500.97
2022-08-07T06:17:53.567Z,99509.25
2022-08-07T06:20:31.742Z,99505.88
2022-08-07T06:23:02.255Z,99509.88
2022-08-07T06:25:54.630Z,99513.81
2022-08-07T06:28:28.161Z,99531.97
2022-08-07T06:30:56.497Z,99515.16
2022-08-07T06:33:25.592Z,99526.41
2022-08-07T06:36:12.314Z,99527.00
2022-08-07T06:38:59.433Z,99524.00
2022-08-07T06:42:04.592Z,99535.03
2022-08-07T06:44:33.942Z,99543.72
2022-08-07T06:47:12.571Z,99538.06
2022-08-07T06:49:52.186Z,99538.56
2022-08-07T06:52:32.000Z,99538.88
2022-08-07T06:55:32.083Z,99529.41
2022-08-07T06:58:00.566Z,99532.47
2022-08-07T07:00:31.289Z,99528.53
2022-08-07T07:03:00.908Z,99534.00
2022-08-07T07:06:02.440Z,99532.34
2022-08-07T07:08:18.519Z,99534.00
2022-08-07T07:10:56.499Z,99536.63
2022-08-07T07:13:56.131Z,99533.72
2022-08-07T07:16:27.590Z,99535.34
2022-08-07T07:19:33.887Z,99537.47
2022-08-07T07:22:05.490Z,99528.88
2022-08-07T07:24:43.238Z,99530.50
2022-08-07T07:27:35.525Z,99525.81
2022-08-07T07:30:32.575Z,99523.47
2022-08-07T07:33:06.502Z,99520.94
2022-08-07T07:35:44.025Z,99523.88
2022-08-07T07:38:25.951Z,99523.22
2022-08-07T07:41:02.244Z,99526.41
2022-08-07T07:43:47.753Z,99521.09
2022-08-07T07:46:39.873Z,99526.66
2022-08-07T07:50:35.564Z,99517.69
2022-08-07T07:52:00.380Z,99512.34
2022-08-07T07:54:28.338Z,99507.66
2022-08-07T07:56:57.578Z,99510.63
2022-08-07T07:59:52.530Z,99501.44
2022-08-07T08:02:34.204Z,99514.34
2022-08-07T08:05:14.486Z,99514.50
2022-08-07T08:07:51.621Z,99512.84
2022-08-07T08:10:37.962Z,99510.34
2022-08-07T08:13:10.525Z,99506.38
2022-08-07T08:15:57.622Z,99509.03
2022-08-07T08:18:28.713Z,99501.34
2022-08-07T08:21:00.353Z,99506.44
2022-08-07T08:23:51.921Z,99501.72
2022-08-07T08:26:38.190Z,99506.94
2022-08-07T08:29:06.497Z,99506.69
2022-08-07T08:31:59.087Z,99503.31
2022-08-07T08:34:29.051Z,99509.88
2022-08-07T08:36:58.438Z,99503.34
2022-08-07T08:39:39.667Z,99499.22
2022-08-07T08:42:22.506Z,99490.31
2022-08-07T08:45:42.059Z,99483.75
2022-08-07T08:48:32.534Z,99471.59
2022-08-07T08:51:23.311Z,99468.41
2022-08-07T08:54:16.116Z,99418.94
2022-08-07T08:56:48.841Z,99376.66
2022-08-07T08:59:42.086Z,99382.44
2022-08-07T09:02:36.554Z,99394.19
2022-08-07T09:05:32.081Z,99389.00
2022-08-07T09:08:10.386Z,99370.75
2022-08-07T09:11:24.977Z,99378.66
2022-08-07T09:14:27.476Z,99382.41
2022-08-07T09:18:00.351Z,99398.06
2022-08-07T09:20:35.974Z,99391.91
2022-08-07T09:24:32.257Z,99319.09
2022-08-07T09:26:27.851Z,99390.19
2022-08-07T09:30:06.114Z,99377.41
2022-08-07T09:32:17.102Z,99311.22
2022-08-07T09:35:04.579Z,99341.81
2022-08-07T09:38:10.560Z,99217.06
2022-08-07T09:41:05.981Z,99266.66
2022-08-07T09:44:05.404Z,99314.44
2022-08-07T09:47:42.689Z,99340.66
2022-08-07T09:50:01.015Z,99345.22
2022-08-07T09:52:42.465Z,99330.81
2022-08-07T09:55:29.240Z,99305.66
2022-08-07T09:58:21.413Z,99319.66
2022-08-07T10:01:51.064Z,99344.47
2022-08-07T10:04:39.639Z,99322.75
2022-08-07T10:07:39.887Z,99299.72
2022-08-07T10:10:22.877Z,99337.03
2022-08-07T10:13:02.210Z,99326.38
2022-08-07T10:15:30.464Z,99342.63
2022-08-07T10:18:50.735Z,99389.13
2022-08-07T10:22:12.137Z,99347.81
2022-08-07T10:24:22.276Z,99335.25
2022-08-07T10:27:30.258Z,99306.81
2022-08-07T10:30:17.866Z,99291.66
2022-08-07T10:32:52.451Z,99194.28
2022-08-07T10:35:55.325Z,99136.41
2022-08-07T10:39:01.119Z,99034.19
2022-08-07T10:41:47.454Z,99036.91
2022-08-07T10:45:04.242Z,98932.00
2022-08-07T10:47:53.906Z,98913.91
2022-08-07T10:50:42.469Z,98907.59
2022-08-07T10:53:26.464Z,98903.50
2022-08-07T10:56:04.880Z,98958.13
2022-08-07T10:58:46.120Z,99023.81
2022-08-07T11:01:51.405Z,99048.50
2022-08-07T11:04:41.009Z,99118.25
2022-08-07T11:07:56.296Z,99092.75
2022-08-07T11:10:57.924Z,99034.47
2022-08-07T11:14:42.344Z,99008.69
2022-08-07T11:16:50.738Z,99008.59
2022-08-07T11:19:27.251Z,98946.44
2022-08-07T11:22:26.671Z,98869.94
2022-08-07T11:25:23.882Z,98800.91
2022-08-07T11:28:09.244Z,98742.16
2022-08-07T11:31:08.904Z,98707.19
2022-08-07T11:34:00.062Z,98699.63
2022-08-07T11:37:00.360Z,98675.13
2022-08-07T11:39:39.866Z,98718.06
2022-08-07T11:43:01.813Z,98773.31
2022-08-07T11:45:49.933Z,98769.69
2022-08-07T11:48:44.161Z,98716.63
2022-08-07T11:51:44.716Z,98706.34
2022-08-07T11:54:34.234Z,98886.34
2022-08-07T11:57:20.710Z,99066.88
2022-08-07T12:00:19.237Z,99246.63
2022-08-07T12:03:45.719Z,99381.41
2022-08-07T12:06:39.808Z,99499.53
2022-08-07T12:09:46.988Z,99593.16
2022-08-07T12:12:28.482Z,99661.50
2022-08-07T12:15:01.436Z,99720.22
2022-08-07T12:17:58.443Z,99783.66
2022-08-07T12:20:45.107Z,99816.75
2022-08-07T12:24:07.690Z,99831.25
2022-08-07T12:26:54.045Z,99801.88
2022-08-07T12:29:38.016Z,99799.06
2022-08-07T12:32:20.892Z,99737.22
2022-08-07T12:34:55.864Z,99661.63
2022-08-07T12:37:28.268Z,99608.41
2022-08-07T12:40:43.684Z,99584.69
2022-08-07T12:43:09.663Z,99600.91
2022-08-07T12:45:55.336Z,99540.50
2022-08-07T12:48:55.101Z,99525.13
2022-08-07T12:51:33.359Z,99531.03
2022-08-07T12:54:37.265Z,99501.84
2022-08-07T12:57:09.542Z,99504.16
2022-08-07T12:59:54.235Z,99505.13
2022-08-07T13:02:37.354Z,99508.31
2022-08-07T13:06:02.554Z,99522.59
2022-08-07T13:09:02.727Z,99520.06
2022-08-07T13:12:03.332Z,99527.34
2022-08-07T13:15:07.374Z,99528.41
2022-08-07T13:17:46.573Z,99539.09
2022-08-07T13:20:27.839Z,99551.09
2022-08-07T13:23:09.829Z,99554.66
2022-08-07T13:26:03.193Z,99563.66
2022-08-07T13:28:58.468Z,99562.84
2022-08-07T13:32:31.030Z,99542.97
2022-08-07T13:35:08.541Z,99532.66
2022-08-07T13:38:01.125Z,99531.59
2022-08-07T13:40:56.100Z,99533.41
2022-08-07T13:43:23.266Z,99531.41
2022-08-07T13:46:11.182Z,99542.19
2022-08-07T13:48:58.603Z,99531.78
2022-08-07T13:52:23.152Z,99533.41
2022-08-07T13:54:23.797Z,99529.59
2022-08-07T13:56:56.290Z,99519.41
2022-08-07T13:59:33.177Z,99532.22
2022-08-07T14:02:13.346Z,99530.09
2022-08-07T14:04:54.829Z,99541.69
2022-08-07T14:07:27.816Z,99544.13
2022-08-07T14:10:12.218Z,99544.00
2022-08-07T14:12:55.687Z,99547.56
2022-08-07T14:15:42.731Z,99539.50
2022-08-07T14:18:30.665Z,99545.94
2022-08-07T14:22:01.395Z,99537.81
2022-08-07T14:24:14.823Z,99539.16
2022-08-07T14:26:52.614Z,99532.13
2022-08-07T14:30:06.412Z,99532.72
2022-08-07T14:32:15.234Z,99531.72
2022-08-07T14:34:47.129Z,99533.97
2022-08-07T14:37:17.743Z,99526.84
2022-08-07T14:40:16.664Z,99532.63
2022-08-07T14:43:01.383Z,99534.31
2022-08-07T14:45:46.617Z,99535.44
2022-08-07T14:48:20.366Z,99540.19
2022-08-07T14:50:56.468Z,99533.53
2022-08-07T14:54:08.661Z,99524.13
2022-08-07T14:56:15.976Z,99532.19
2022-08-07T14:59:02.177Z,99535.16
2022-08-07T15:01:42.353Z,99527.28
2022-08-07T15:04:12.872Z,99531.53
2022-08-07T15:06:47.833Z,99528.56
2022-08-07T15:09:59.609Z,99524.31
2022-08-07T15:12:25.866Z,99533.03
2022-08-07T15:15:07.862Z,99532.59
2022-08-07T15:20:38.590Z,99541.31
2022-08-07T15:25:03.114Z,99555.69
2022-08-07T15:30:09.462Z,99574.97
2022-08-07T15:32:01.318Z,99582.28
2022-08-07T15:34:37.828Z,99566.84
2022-08-07T15:40:16.033Z,99560.47
2022-08-07T15:46:31.105Z,99545.41
2022-08-07T15:49:13.229Z,99541.63
2022-08-07T15:54:34.731Z,99545.63
2022-08-07T15:57:39.689Z,99543.34
2022-08-07T15:59:59.522Z,99540.50
2022-08-07T16:02:38.642Z,99532.16
2022-08-07T16:05:20.621Z,99529.16
2022-08-07T16:08:31.754Z,99526.22
2022-08-07T16:11:26.251Z,99525.56
2022-08-07T16:14:03.946Z,99541.94
2022-08-07T16:16:47.946Z,99532.16
2022-08-07T16:19:42.838Z,99542.97
2022-08-07T16:22:55.150Z,99560.44
2022-08-07T16:25:55.505Z,99574.72
2022-08-07T16:30:06.926Z,99580.03
2022-08-07T16:32:06.199Z,99598.53
2022-08-07T16:34:38.868Z,99590.25
2022-08-07T16:38:04.884Z,99606.78
2022-08-07T16:40:28.140Z,99592.59
2022-08-07T16:43:23.230Z,99601.00
2022-08-07T16:47:04.832Z,99605.47
2022-08-07T16:50:29.278Z,99612.47
2022-08-07T16:52:51.274Z,99614.53
2022-08-07T16:55:47.968Z,99616.59
2022-08-07T16:59:11.294Z,99609.94
2022-08-07T17:01:59.722Z,99619.00
2022-08-07T17:06:19.514Z,99615.56
2022-08-07T17:08:05.122Z,99612.88
2022-08-07T17:10:54.926Z,99618.16
2022-08-07T17:13:38.741Z,99623.47
2022-08-07T17:16:43.603Z,99621.19
2022-08-07T17:20:02.990Z,99622.81
2022-08-07T17:23:06.088Z,99623.31
2022-08-07T17:26:23.999Z,99627.16
2022-08-07T17:28:57.821Z,99639.44
2022-08-07T17:32:06.295Z,99641.56
2022-08-07T17:35:33.070Z,99649.06
2022-08-07T17:38:05.066Z,99653.00
2022-08-07T17:40:30.393Z,99644.47
2022-08-07T17:44:00.923Z,99645.25
2022-08-07T17:46:16.168Z,99648.31
2022-08-07T17:49:23.860Z,99646.63
2022-08-07T17:52:19.640Z,99661.88
2022-08-07T17:54:55.550Z,99654.19
2022-08-07T17:57:58.333Z,99652.38
2022-08-07T18:00:33.282Z,99656.19
2022-08-07T18:03:20.889Z,99653.34
2022-08-07T18:06:02.772Z,99648.22
2022-08-07T18:09:01.474Z,99649.00
2022-08-07T18:12:30.491Z,99648.75
2022-08-07T18:15:09.809Z,99648.34
2022-08-07T18:18:44.994Z,99655.34
2022-08-07T18:21:05.946Z,99653.63
2022-08-07T18:24:12.323Z,99655.50
2022-08-07T18:27:18.291Z,99665.47
2022-08-07T18:30:32.604Z,99661.00
2022-08-07T18:33:24.746Z,99670.19
2022-08-07T18:36:08.013Z,99673.91
2022-08-07T18:40:07.245Z,99682.03
2022-08-07T18:42:12.823Z,99674.75
2022-08-07T18:45:43.112Z,99673.53
2022-08-07T18:47:50.480Z,99672.16
2022-08-07T18:50:46.444Z,99671.94
2022-08-07T18:53:36.634Z,99663.31
2022-08-07T18:56:57.858Z,99671.53
2022-08-07T18:59:58.993Z,99681.66
2022-08-07T19:03:15.914Z,99691.00
2022-08-07T19:06:02.331Z,99700.97
2022-08-07T19:08:58.976Z,99698.41
2022-08-07T19:12:04.042Z,99697.63
2022-08-07T19:15:01.457Z,99707.44
2022-08-07T19:18:11.635Z,99694.44
2022-08-07T19:21:09.288Z,99701.59
2022-08-07T19:23:58.715Z,99699.22
2022-08-07T19:27:08.857Z,99696.84
2022-08-07T19:31:00.217Z,99686.47
2022-08-07T19:32:28.736Z,99689.13
2022-08-07T19:35:07.129Z,99691.66
2022-08-07T19:37:57.151Z,99689.19
2022-08-07T19:40:31.307Z,99690.81
2022-08-07T19:43:08.765Z,99690.94
2022-08-07T19:46:05.750Z,99690.19
2022-08-07T19:48:42.901Z,99692.69
2022-08-07T19:51:19.537Z,99689.41
2022-08-07T19:54:30.887Z,99692.69
2022-08-07T19:57:52.006Z,99687.41
2022-08-07T19:59:41.564Z,99696.94
2022-08-07T20:02:19.040Z,99700.53
2022-08-07T20:04:49.457Z,99694.41
2022-08-07T20:07:23.721Z,99695.94
2022-08-07T20:10:35.535Z,99686.16
2022-08-07T20:12:45.691Z,99681.78
2022-08-07T20:15:22.370Z,99685.53
2022-08-07T20:18:01.535Z,99693.53
2022-08-07T20:20:32.766Z,99691.84
2022-08-07T20:23:22.833Z,99695.31
2022-08-07T20:25:53.194Z,99689.25
2022-08-07T20:28:21.028Z,99698.88
2022-08-07T20:30:58.827Z,99699.81
2022-08-07T20:33:37.757Z,99701.38
2022-08-07T20:36:08.103Z,99696.41
2022-08-07T20:38:53.615Z,99698.41
2022-08-07T20:41:34.081Z,99701.28
2022-08-07T20:44:12.558Z,99705.72
2022-08-07T20:46:43.731Z,99693.25
2022-08-07T20:50:00.291Z,99686.66
2022-08-07T20:52:09.382Z,99677.19
2022-08-07T20:54:53.348Z,99668.00
2022-08-07T20:57:28.096Z,99676.06
2022-08-07T21:00:06.310Z,99685.31
2022-08-07T21:03:00.904Z,99694.66
2022-08-07T21:05:52.425Z,99700.28
2022-08-07T21:08:32.296Z,99700.53
2022-08-07T21:11:07.445Z,99690.38
2022-08-07T21:13:57.140Z,99678.34
2022-08-07T21:17:06.800Z,99680.81
2022-08-07T21:20:00.972Z,99653.47
2022-08-07T21:22:28.234Z,99664.16
2022-08-07T21:25:19.750Z,99678.09
2022-08-07T21:28:02.151Z,99697.19
2022-08-07T21:30:39.401Z,99702.44
2022-08-07T21:33:22.149Z,99702.28
2022-08-07T21:36:31.225Z,99690.19
2022-08-07T21:39:45.378Z,99688.09
2022-08-07T21:42:46.672Z,99693.34
2022-08-07T21:46:07.847Z,99697.03
2022-08-07T21:48:44.025Z,99702.44
2022-08-07T21:51:33.768Z,99700.13
2022-08-07T21:54:35.078Z,99702.72
2022-08-07T21:57:31.097Z,99715.34
2022-08-07T22:00:25.159Z,99715.59
2022-08-07T22:03:17.540Z,99720.13
2022-08-07T22:06:04.001Z,99720.72
2022-08-07T22:08:44.711Z,99716.06
2022-08-07T22:11:17.714Z,99722.34
2022-08-07T22:13:55.310Z,99724.19
2022-08-07T22:16:47.831Z,99724.81
2022-08-07T22:19:36.911Z,99729.03
2022-08-07T22:22:21.268Z,99728.19
2022-08-07T22:25:02.978Z,99723.03
2022-08-07T22:28:31.585Z,99723.06
2022-08-07T22:31:12.396Z,99726.41
2022-08-07T22:34:18.172Z,99716.81
2022-08-07T22:37:12.509Z,99721.91
2022-08-07T22:40:01.068Z,99713.38
2022-08-07T22:42:35.236Z,99712.72
2022-08-07T22:45:10.955Z,99721.31
2022-08-07T22:48:01.062Z,99716.53
2022-08-07T22:50:53.433Z,99715.53
2022-08-07T22:54:06.641Z,99713.13
2022-08-07T22:57:00.979Z,99712.09
2022-08-07T22:59:49.837Z,99707.84
2022-08-07T23:02:58.559Z,99714.97
2022-08-07T23:06:07.613Z,99719.44
2022-08-07T23:10:00.897Z,99728.34
2022-08-07T23:12:06.481Z,99730.53
2022-08-07T23:16:04.484Z,99732.22
2022-08-07T23:18:23.153Z,99726.50
2022-08-07T23:21:07.606Z,99731.06
2022-08-07T23:24:18.552Z,99732.50
2022-08-07T23:27:07.866Z,99732.69
2022-08-07T23:30:38.709Z,99735.97
2022-08-07T23:34:34.806Z,99737.81
2022-08-07T23:36:17.035Z,99729.94
2022-08-07T23:39:09.369Z,99728.25
2022-08-07T23:42:04.672Z,99728.09
2022-08-07T23:44:51.450Z,99732.31
2022-08-07T23:47:42.275Z,99729.81
2022-08-07T23:50:22.569Z,99737.03
2022-08-07T23:53:17.043Z,99729.09
2022-08-07T23:56:20.805Z,99729.94
2022-08-07T23:59:10.652Z,99723.75
